Terminal Aerodrome Forecast
Issued by NWS Blacksburg, VA

Home | Current Version | Previous Version | Text Only | Print | Product List | Glossary On
Versions: 1 2 3 4 5 6 7 8 9 10 11 12 13 14 15 16 17 18 19 20 21 22 23 24 25 26 27 28 29 30 31 32 33 34 35 36 37 38 39 40 41 42
000
FTUS41 KRNK 310901 AAB
TAFBLF
TAF AMD
KBLF 310901Z 3109/0106 24009KT P6SM -SHRA SCT020 OVC050
      TEMPO 3109/3110 3SM SHRA OVC035
     FM311700 24010KT P6SM VCSH SCT015 BKN080
     FM312000 22008KT 6SM -SHRA VCTS BKN045CB
     FM010000 21007KT 5SM -SHRA OVC035=

USA.gov is the U.S. government's official web portal to all federal, state and local government web resources and services.